Hiawatha, Utah
Current Conditions -  °F | °C
As of 2:29 PM on Friday 19 Dec 2014 (Local Time) from KPUC Reporting Station
Broken Clouds Broken Clouds  
Wind Chill: 26°   Ceiling: 1000
Heat Index: 32°   Visibility: 10mi
Dew Point: 25°   Wind: 6mph
Humidity: 75%   Direction: 100°E
Pressure: 30.19"   Gusts: NA
Location:  39.5°N, 111.03°W
Report Text: KPUC 192129Z AUTO 10005KT 10SM BKN010 00/M04 A3019 RMK AO2 T00001039
Loading
Personal Weather Stations






























Interactive Weather Map New forecast layout! Learn more

10-Day Weather Forecast

Advertisements
Track Severe Weather on mobile